sensor_id;sensor_type;location;lat;lon;timestamp;temperature;humidity
41924;DHT22;27613;48.116;11.656;2022-10-22T00:00:14;13.20;99.90
41924;DHT22;27613;48.116;11.656;2022-10-22T00:02:41;13.20;99.90
41924;DHT22;27613;48.116;11.656;2022-10-22T00:05:07;13.20;99.90
41924;DHT22;27613;48.116;11.656;2022-10-22T00:07:33;13.20;99.90
41924;DHT22;27613;48.116;11.656;2022-10-22T00:09:59;13.20;99.90
41924;DHT22;27613;48.116;11.656;2022-10-22T00:12:24;13.20;99.90
41924;DHT22;27613;48.116;11.656;2022-10-22T00:14:50;13.20;99.90
41924;DHT22;27613;48.116;11.656;2022-10-22T00:17:16;13.10;99.90
41924;DHT22;27613;48.116;11.656;2022-10-22T00:19:42;13.20;99.90
41924;DHT22;27613;48.116;11.656;2022-10-22T00:22:08;13.20;99.90
41924;DHT22;27613;48.116;11.656;2022-10-22T00:24:36;13.10;99.90
41924;DHT22;27613;48.116;11.656;2022-10-22T00:27:03;13.10;99.90
41924;DHT22;27613;48.116;11.656;2022-10-22T00:29:29;13.20;99.90
41924;DHT22;27613;48.116;11.656;2022-10-22T00:31:55;13.20;99.90
41924;DHT22;27613;48.116;11.656;2022-10-22T00:34:22;13.20;99.90
41924;DHT22;27613;48.116;11.656;2022-10-22T00:36:48;13.20;99.90
41924;DHT22;27613;48.116;11.656;2022-10-22T00:39:16;13.20;99.90
41924;DHT22;27613;48.116;11.656;2022-10-22T00:41:44;13.20;99.90
41924;DHT22;27613;48.116;11.656;2022-10-22T00:47:14;13.20;99.90
41924;DHT22;27613;48.116;11.656;2022-10-22T00:49:41;13.30;99.90
41924;DHT22;27613;48.116;11.656;2022-10-22T00:52:07;13.40;99.90
41924;DHT22;27613;48.116;11.656;2022-10-22T00:54:33;13.30;99.90
41924;DHT22;27613;48.116;11.656;2022-10-22T00:56:59;13.30;99.90
41924;DHT22;27613;48.116;11.656;2022-10-22T00:59:25;13.20;99.90
41924;DHT22;27613;48.116;11.656;2022-10-22T01:01:51;13.30;99.90
41924;DHT22;27613;48.116;11.656;2022-10-22T01:04:18;13.30;99.90
41924;DHT22;27613;48.116;11.656;2022-10-22T01:06:44;13.20;99.90
41924;DHT22;27613;48.116;11.656;2022-10-22T01:11:56;13.20;99.90
41924;DHT22;27613;48.116;11.656;2022-10-22T01:17:29;13.20;99.90
41924;DHT22;27613;48.116;11.656;2022-10-22T01:26:14;13.10;99.90
41924;DHT22;27613;48.116;11.656;2022-10-22T01:29:00;13.10;99.90
41924;DHT22;27613;48.116;11.656;2022-10-22T01:31:35;13.10;99.90
41924;DHT22;27613;48.116;11.656;2022-10-22T01:34:03;13.00;99.90
41924;DHT22;27613;48.116;11.656;2022-10-22T01:36:31;13.00;99.90
41924;DHT22;27613;48.116;11.656;2022-10-22T01:39:00;13.00;99.90
41924;DHT22;27613;48.116;11.656;2022-10-22T01:41:29;12.90;99.90
41924;DHT22;27613;48.116;11.656;2022-10-22T01:43:55;13.00;99.90
41924;DHT22;27613;48.116;11.656;2022-10-22T01:46:23;13.00;99.90
41924;DHT22;27613;48.116;11.656;2022-10-22T01:49:28;13.00;99.90
41924;DHT22;27613;48.116;11.656;2022-10-22T01:54:49;12.90;99.90
41924;DHT22;27613;48.116;11.656;2022-10-22T01:57:43;12.90;99.90
41924;DHT22;27613;48.116;11.656;2022-10-22T02:00:13;12.90;99.90
41924;DHT22;27613;48.116;11.656;2022-10-22T02:05:33;12.80;99.90
41924;DHT22;27613;48.116;11.656;2022-10-22T02:08:06;12.90;99.90
41924;DHT22;27613;48.116;11.656;2022-10-22T02:10:37;12.80;99.90
41924;DHT22;27613;48.116;11.656;2022-10-22T02:13:06;12.80;99.90
41924;DHT22;27613;48.116;11.656;2022-10-22T02:15:33;12.80;99.90
41924;DHT22;27613;48.116;11.656;2022-10-22T02:18:02;12.80;99.90
41924;DHT22;27613;48.116;11.656;2022-10-22T02:20:31;12.80;99.90
41924;DHT22;27613;48.116;11.656;2022-10-22T02:22:59;12.80;99.90
41924;DHT22;27613;48.116;11.656;2022-10-22T02:25:28;12.80;99.90
41924;DHT22;27613;48.116;11.656;2022-10-22T02:30:52;12.80;99.90
41924;DHT22;27613;48.116;11.656;2022-10-22T02:33:31;12.80;99.90
41924;DHT22;27613;48.116;11.656;2022-10-22T02:36:00;12.80;99.90
41924;DHT22;27613;48.116;11.656;2022-10-22T02:38:27;12.80;99.90
41924;DHT22;27613;48.116;11.656;2022-10-22T02:40:53;12.80;99.90
41924;DHT22;27613;48.116;11.656;2022-10-22T02:43:19;12.80;99.90
41924;DHT22;27613;48.116;11.656;2022-10-22T02:45:45;12.80;99.90
41924;DHT22;27613;48.116;11.656;2022-10-22T02:48:11;12.80;99.90
41924;DHT22;27613;48.116;11.656;2022-10-22T02:50:36;12.80;99.90
41924;DHT22;27613;48.116;11.656;2022-10-22T02:53:02;12.80;99.90
41924;DHT22;27613;48.116;11.656;2022-10-22T02:55:28;12.80;99.90
41924;DHT22;27613;48.116;11.656;2022-10-22T02:57:54;12.80;99.90
41924;DHT22;27613;48.116;11.656;2022-10-22T03:00:20;12.80;99.90
41924;DHT22;27613;48.116;11.656;2022-10-22T03:02:45;12.80;99.90
41924;DHT22;27613;48.116;11.656;2022-10-22T03:05:11;12.80;99.90
41924;DHT22;27613;48.116;11.656;2022-10-22T03:07:37;12.80;99.90
41924;DHT22;27613;48.116;11.656;2022-10-22T03:10:03;12.80;99.90
41924;DHT22;27613;48.116;11.656;2022-10-22T03:12:29;12.80;99.90
41924;DHT22;27613;48.116;11.656;2022-10-22T03:14:54;12.80;99.90
41924;DHT22;27613;48.116;11.656;2022-10-22T03:17:20;12.80;99.90
41924;DHT22;27613;48.116;11.656;2022-10-22T03:19:45;12.80;99.90
41924;DHT22;27613;48.116;11.656;2022-10-22T03:22:24;12.80;99.90
41924;DHT22;27613;48.116;11.656;2022-10-22T03:24:54;12.70;99.90
41924;DHT22;27613;48.116;11.656;2022-10-22T03:27:21;12.70;99.90
41924;DHT22;27613;48.116;11.656;2022-10-22T03:29:48;12.70;99.90
41924;DHT22;27613;48.116;11.656;2022-10-22T03:32:14;12.70;99.90
41924;DHT22;27613;48.116;11.656;2022-10-22T03:34:40;12.70;99.90
41924;DHT22;27613;48.116;11.656;2022-10-22T03:37:05;12.70;99.90
41924;DHT22;27613;48.116;11.656;2022-10-22T03:39:33;12.70;99.90
41924;DHT22;27613;48.116;11.656;2022-10-22T03:41:59;12.70;99.90
41924;DHT22;27613;48.116;11.656;2022-10-22T03:44:25;12.70;99.90
41924;DHT22;27613;48.116;11.656;2022-10-22T03:46:52;12.70;99.90
41924;DHT22;27613;48.116;11.656;2022-10-22T03:49:17;12.60;99.90
41924;DHT22;27613;48.116;11.656;2022-10-22T03:51:43;12.50;99.90
41924;DHT22;27613;48.116;11.656;2022-10-22T03:54:09;12.40;99.90
41924;DHT22;27613;48.116;11.656;2022-10-22T03:56:34;12.40;99.90
41924;DHT22;27613;48.116;11.656;2022-10-22T03:59:00;12.40;99.90
41924;DHT22;27613;48.116;11.656;2022-10-22T04:01:28;12.30;99.90
41924;DHT22;27613;48.116;11.656;2022-10-22T04:03:54;12.30;99.90
41924;DHT22;27613;48.116;11.656;2022-10-22T04:06:21;12.30;99.90
41924;DHT22;27613;48.116;11.656;2022-10-22T04:08:47;12.20;99.90
41924;DHT22;27613;48.116;11.656;2022-10-22T04:11:14;12.20;99.90
41924;DHT22;27613;48.116;11.656;2022-10-22T04:13:40;12.10;99.90
41924;DHT22;27613;48.116;11.656;2022-10-22T04:16:12;12.10;99.90
41924;DHT22;27613;48.116;11.656;2022-10-22T04:18:38;12.10;99.90
41924;DHT22;27613;48.116;11.656;2022-10-22T04:21:06;12.10;99.90
41924;DHT22;27613;48.116;11.656;2022-10-22T04:23:31;12.10;99.90
41924;DHT22;27613;48.116;11.656;2022-10-22T04:26:02;12.00;99.90
41924;DHT22;27613;48.116;11.656;2022-10-22T04:28:28;12.00;99.90
41924;DHT22;27613;48.116;11.656;2022-10-22T04:30:54;12.10;99.90
41924;DHT22;27613;48.116;11.656;2022-10-22T04:33:20;12.10;99.90
41924;DHT22;27613;48.116;11.656;2022-10-22T04:35:46;12.00;99.90
41924;DHT22;27613;48.116;11.656;2022-10-22T04:38:12;12.00;99.90
41924;DHT22;27613;48.116;11.656;2022-10-22T04:40:37;11.90;99.90
41924;DHT22;27613;48.116;11.656;2022-10-22T04:43:03;11.90;99.90
41924;DHT22;27613;48.116;11.656;2022-10-22T04:45:29;12.00;99.90
41924;DHT22;27613;48.116;11.656;2022-10-22T04:47:55;11.90;99.90
41924;DHT22;27613;48.116;11.656;2022-10-22T04:50:20;11.90;99.90
41924;DHT22;27613;48.116;11.656;2022-10-22T04:52:46;11.90;99.90
41924;DHT22;27613;48.116;11.656;2022-10-22T04:55:12;11.90;99.90
41924;DHT22;27613;48.116;11.656;2022-10-22T04:57:37;11.90;99.90
41924;DHT22;27613;48.116;11.656;2022-10-22T05:00:04;11.80;99.90
41924;DHT22;27613;48.116;11.656;2022-10-22T05:02:30;11.80;99.90
41924;DHT22;27613;48.116;11.656;2022-10-22T05:04:55;11.80;99.90
41924;DHT22;27613;48.116;11.656;2022-10-22T05:07:21;11.80;99.90
41924;DHT22;27613;48.116;11.656;2022-10-22T05:09:48;11.80;99.90
41924;DHT22;27613;48.116;11.656;2022-10-22T05:12:13;11.70;99.90
41924;DHT22;27613;48.116;11.656;2022-10-22T05:14:39;11.70;99.90
41924;DHT22;27613;48.116;11.656;2022-10-22T05:17:05;11.70;99.90
41924;DHT22;27613;48.116;11.656;2022-10-22T05:19:30;11.70;99.90
41924;DHT22;27613;48.116;11.656;2022-10-22T05:21:58;11.60;99.90
41924;DHT22;27613;48.116;11.656;2022-10-22T05:24:25;11.70;99.90
41924;DHT22;27613;48.116;11.656;2022-10-22T05:26:52;11.70;99.90
41924;DHT22;27613;48.116;11.656;2022-10-22T05:29:18;11.70;99.90
41924;DHT22;27613;48.116;11.656;2022-10-22T05:31:44;11.70;99.90
41924;DHT22;27613;48.116;11.656;2022-10-22T05:34:09;11.60;99.90
41924;DHT22;27613;48.116;11.656;2022-10-22T05:36:35;11.80;99.90
41924;DHT22;27613;48.116;11.656;2022-10-22T05:39:01;11.70;99.90
41924;DHT22;27613;48.116;11.656;2022-10-22T05:41:28;11.80;99.90
41924;DHT22;27613;48.116;11.656;2022-10-22T05:43:56;11.80;99.90
41924;DHT22;27613;48.116;11.656;2022-10-22T05:46:23;11.80;99.90
41924;DHT22;27613;48.116;11.656;2022-10-22T05:48:54;11.80;99.90
41924;DHT22;27613;48.116;11.656;2022-10-22T05:51:20;11.80;99.90
41924;DHT22;27613;48.116;11.656;2022-10-22T05:53:49;11.80;99.90
41924;DHT22;27613;48.116;11.656;2022-10-22T05:56:15;11.90;99.90
41924;DHT22;27613;48.116;11.656;2022-10-22T05:58:42;11.90;99.90
41924;DHT22;27613;48.116;11.656;2022-10-22T06:01:23;11.90;99.90
41924;DHT22;27613;48.116;11.656;2022-10-22T06:03:48;11.90;99.90
41924;DHT22;27613;48.116;11.656;2022-10-22T06:06:29;11.90;99.90
41924;DHT22;27613;48.116;11.656;2022-10-22T06:09:00;12.00;99.90
41924;DHT22;27613;48.116;11.656;2022-10-22T06:11:26;12.00;99.90
41924;DHT22;27613;48.116;11.656;2022-10-22T06:13:51;12.00;99.90
41924;DHT22;27613;48.116;11.656;2022-10-22T06:16:17;12.00;99.90
41924;DHT22;27613;48.116;11.656;2022-10-22T06:18:43;12.00;99.90
41924;DHT22;27613;48.116;11.656;2022-10-22T06:21:10;11.90;99.90
41924;DHT22;27613;48.116;11.656;2022-10-22T06:23:37;11.90;99.90
41924;DHT22;27613;48.116;11.656;2022-10-22T06:26:03;11.90;99.90
41924;DHT22;27613;48.116;11.656;2022-10-22T06:28:29;11.90;99.90
41924;DHT22;27613;48.116;11.656;2022-10-22T06:30:59;11.90;99.90
41924;DHT22;27613;48.116;11.656;2022-10-22T06:33:26;11.80;99.90
41924;DHT22;27613;48.116;11.656;2022-10-22T06:35:52;11.80;99.90
41924;DHT22;27613;48.116;11.656;2022-10-22T06:38:18;11.80;99.90
41924;DHT22;27613;48.116;11.656;2022-10-22T06:40:43;11.80;99.90
41924;DHT22;27613;48.116;11.656;2022-10-22T06:43:11;11.80;99.90
41924;DHT22;27613;48.116;11.656;2022-10-22T06:45:37;11.80;99.90
41924;DHT22;27613;48.116;11.656;2022-10-22T06:48:03;11.70;99.90
41924;DHT22;27613;48.116;11.656;2022-10-22T06:50:29;11.80;99.90
41924;DHT22;27613;48.116;11.656;2022-10-22T06:52:55;11.80;99.90
41924;DHT22;27613;48.116;11.656;2022-10-22T06:55:21;11.80;99.90
41924;DHT22;27613;48.116;11.656;2022-10-22T06:57:47;11.80;99.90
41924;DHT22;27613;48.116;11.656;2022-10-22T07:00:13;11.90;99.90
41924;DHT22;27613;48.116;11.656;2022-10-22T07:02:38;11.90;99.90
41924;DHT22;27613;48.116;11.656;2022-10-22T07:05:04;11.90;99.90
41924;DHT22;27613;48.116;11.656;2022-10-22T07:07:30;11.90;99.90
41924;DHT22;27613;48.116;11.656;2022-10-22T07:09:56;11.90;99.90
41924;DHT22;27613;48.116;11.656;2022-10-22T07:12:21;12.00;99.90
41924;DHT22;27613;48.116;11.656;2022-10-22T07:14:48;12.10;99.90
41924;DHT22;27613;48.116;11.656;2022-10-22T07:17:13;12.00;99.90
41924;DHT22;27613;48.116;11.656;2022-10-22T07:19:39;12.00;99.90
41924;DHT22;27613;48.116;11.656;2022-10-22T07:22:04;12.00;99.90
41924;DHT22;27613;48.116;11.656;2022-10-22T07:24:30;12.00;99.90
41924;DHT22;27613;48.116;11.656;2022-10-22T07:26:55;12.00;99.90
41924;DHT22;27613;48.116;11.656;2022-10-22T07:29:21;12.00;99.90
41924;DHT22;27613;48.116;11.656;2022-10-22T07:31:47;12.00;99.90
41924;DHT22;27613;48.116;11.656;2022-10-22T07:34:13;12.00;99.90
41924;DHT22;27613;48.116;11.656;2022-10-22T07:36:38;12.00;99.90
41924;DHT22;27613;48.116;11.656;2022-10-22T07:39:04;12.10;99.90
41924;DHT22;27613;48.116;11.656;2022-10-22T07:41:30;12.10;99.90
41924;DHT22;27613;48.116;11.656;2022-10-22T07:43:56;12.20;99.90
41924;DHT22;27613;48.116;11.656;2022-10-22T07:46:22;12.30;99.90
41924;DHT22;27613;48.116;11.656;2022-10-22T07:48:49;12.30;99.90
41924;DHT22;27613;48.116;11.656;2022-10-22T07:51:14;12.40;99.90
41924;DHT22;27613;48.116;11.656;2022-10-22T07:53:40;12.40;99.90
41924;DHT22;27613;48.116;11.656;2022-10-22T07:56:06;12.50;99.90
41924;DHT22;27613;48.116;11.656;2022-10-22T07:58:32;12.50;99.90
41924;DHT22;27613;48.116;11.656;2022-10-22T08:00:58;12.60;99.90
41924;DHT22;27613;48.116;11.656;2022-10-22T08:03:30;12.60;99.90
41924;DHT22;27613;48.116;11.656;2022-10-22T08:05:56;12.70;99.90
41924;DHT22;27613;48.116;11.656;2022-10-22T08:08:22;12.80;99.90
41924;DHT22;27613;48.116;11.656;2022-10-22T08:10:50;12.80;99.90
41924;DHT22;27613;48.116;11.656;2022-10-22T08:13:17;12.80;99.90
41924;DHT22;27613;48.116;11.656;2022-10-22T08:15:43;12.90;99.90
41924;DHT22;27613;48.116;11.656;2022-10-22T08:18:11;12.90;99.90
41924;DHT22;27613;48.116;11.656;2022-10-22T08:20:37;12.90;99.90
41924;DHT22;27613;48.116;11.656;2022-10-22T08:23:02;12.90;99.90
41924;DHT22;27613;48.116;11.656;2022-10-22T08:25:28;12.90;99.90
41924;DHT22;27613;48.116;11.656;2022-10-22T08:27:53;12.90;99.90
41924;DHT22;27613;48.116;11.656;2022-10-22T08:30:19;12.90;99.90
41924;DHT22;27613;48.116;11.656;2022-10-22T08:32:45;13.00;99.90
41924;DHT22;27613;48.116;11.656;2022-10-22T08:35:10;13.00;99.90
41924;DHT22;27613;48.116;11.656;2022-10-22T08:37:36;13.00;99.90
41924;DHT22;27613;48.116;11.656;2022-10-22T08:40:03;13.00;99.90
41924;DHT22;27613;48.116;11.656;2022-10-22T08:48:06;13.00;99.90
41924;DHT22;27613;48.116;11.656;2022-10-22T08:50:37;13.10;99.90
41924;DHT22;27613;48.116;11.656;2022-10-22T08:53:12;13.10;99.90
41924;DHT22;27613;48.116;11.656;2022-10-22T08:55:39;13.10;99.90
41924;DHT22;27613;48.116;11.656;2022-10-22T08:58:12;13.10;99.90
41924;DHT22;27613;48.116;11.656;2022-10-22T09:00:46;13.10;99.90
41924;DHT22;27613;48.116;11.656;2022-10-22T09:03:24;13.20;99.90
41924;DHT22;27613;48.116;11.656;2022-10-22T09:05:55;13.20;99.90
41924;DHT22;27613;48.116;11.656;2022-10-22T09:08:23;13.30;99.90
41924;DHT22;27613;48.116;11.656;2022-10-22T09:10:56;13.30;99.90
41924;DHT22;27613;48.116;11.656;2022-10-22T09:13:23;13.30;99.90
41924;DHT22;27613;48.116;11.656;2022-10-22T09:15:56;13.30;99.90
41924;DHT22;27613;48.116;11.656;2022-10-22T09:21:05;13.30;99.90
41924;DHT22;27613;48.116;11.656;2022-10-22T09:26:11;13.40;99.90
41924;DHT22;27613;48.116;11.656;2022-10-22T09:28:37;13.40;99.90
41924;DHT22;27613;48.116;11.656;2022-10-22T09:31:12;13.50;99.90
41924;DHT22;27613;48.116;11.656;2022-10-22T09:33:39;13.60;99.90
41924;DHT22;27613;48.116;11.656;2022-10-22T09:36:06;13.70;99.90
41924;DHT22;27613;48.116;11.656;2022-10-22T09:38:45;13.70;99.90
41924;DHT22;27613;48.116;11.656;2022-10-22T09:41:11;13.60;99.90
41924;DHT22;27613;48.116;11.656;2022-10-22T09:43:36;13.70;99.90
41924;DHT22;27613;48.116;11.656;2022-10-22T09:46:04;13.70;99.90
41924;DHT22;27613;48.116;11.656;2022-10-22T09:48:40;13.70;99.90
41924;DHT22;27613;48.116;11.656;2022-10-22T09:51:21;13.70;99.90
41924;DHT22;27613;48.116;11.656;2022-10-22T09:53:56;13.80;99.90
41924;DHT22;27613;48.116;11.656;2022-10-22T09:56:35;13.80;99.90
41924;DHT22;27613;48.116;11.656;2022-10-22T09:59:02;13.80;99.90
41924;DHT22;27613;48.116;11.656;2022-10-22T10:01:37;13.80;99.90
41924;DHT22;27613;48.116;11.656;2022-10-22T10:04:07;13.80;99.90
41924;DHT22;27613;48.116;11.656;2022-10-22T10:06:34;13.90;99.90
41924;DHT22;27613;48.116;11.656;2022-10-22T10:09:00;13.90;99.90
41924;DHT22;27613;48.116;11.656;2022-10-22T10:11:58;13.90;99.90
41924;DHT22;27613;48.116;11.656;2022-10-22T10:14:39;13.80;99.90
41924;DHT22;27613;48.116;11.656;2022-10-22T10:17:30;13.80;99.90
41924;DHT22;27613;48.116;11.656;2022-10-22T10:31:16;14.70;99.90
41924;DHT22;27613;48.116;11.656;2022-10-22T10:34:12;14.80;99.90
41924;DHT22;27613;48.116;11.656;2022-10-22T10:39:58;15.30;99.90
41924;DHT22;27613;48.116;11.656;2022-10-22T10:48:08;16.10;99.90
41924;DHT22;27613;48.116;11.656;2022-10-22T10:56:38;17.40;99.90
41924;DHT22;27613;48.116;11.656;2022-10-22T11:07:48;22.30;83.50
41924;DHT22;27613;48.116;11.656;2022-10-22T11:10:18;22.60;77.00
41924;DHT22;27613;48.116;11.656;2022-10-22T11:12:47;21.80;79.60
41924;DHT22;27613;48.116;11.656;2022-10-22T11:15:26;22.30;78.30
41924;DHT22;27613;48.116;11.656;2022-10-22T11:17:55;23.20;73.10
41924;DHT22;27613;48.116;11.656;2022-10-22T11:23:15;21.40;79.10
41924;DHT22;27613;48.116;11.656;2022-10-22T11:25:45;20.30;82.30
41924;DHT22;27613;48.116;11.656;2022-10-22T11:28:36;19.30;87.30
41924;DHT22;27613;48.116;11.656;2022-10-22T11:31:11;19.90;86.90
41924;DHT22;27613;48.116;11.656;2022-10-22T11:36:14;21.40;80.00
41924;DHT22;27613;48.116;11.656;2022-10-22T11:38:42;20.60;82.70
41924;DHT22;27613;48.116;11.656;2022-10-22T11:41:14;20.20;83.00
41924;DHT22;27613;48.116;11.656;2022-10-22T11:44:10;20.40;82.90
41924;DHT22;27613;48.116;11.656;2022-10-22T11:49:22;22.10;78.20
41924;DHT22;27613;48.116;11.656;2022-10-22T11:51:48;22.10;78.60
41924;DHT22;27613;48.116;11.656;2022-10-22T11:54:40;21.50;80.70
41924;DHT22;27613;48.116;11.656;2022-10-22T11:59:52;20.80;83.00
41924;DHT22;27613;48.116;11.656;2022-10-22T12:05:00;20.80;83.20
41924;DHT22;27613;48.116;11.656;2022-10-22T12:10:21;22.10;80.50
41924;DHT22;27613;48.116;11.656;2022-10-22T12:12:56;24.80;74.20
41924;DHT22;27613;48.116;11.656;2022-10-22T12:15:26;25.60;68.30
41924;DHT22;27613;48.116;11.656;2022-10-22T12:18:04;23.80;68.10
41924;DHT22;27613;48.116;11.656;2022-10-22T12:20:30;22.10;73.40
41924;DHT22;27613;48.116;11.656;2022-10-22T12:22:56;21.20;76.00
41924;DHT22;27613;48.116;11.656;2022-10-22T12:25:25;21.20;76.10
41924;DHT22;27613;48.116;11.656;2022-10-22T12:27:56;20.60;78.80
41924;DHT22;27613;48.116;11.656;2022-10-22T12:30:26;20.20;80.00
41924;DHT22;27613;48.116;11.656;2022-10-22T12:32:57;19.70;81.30
41924;DHT22;27613;48.116;11.656;2022-10-22T12:35:26;19.40;82.20
41924;DHT22;27613;48.116;11.656;2022-10-22T12:37:55;20.00;82.90
41924;DHT22;27613;48.116;11.656;2022-10-22T12:40:23;19.80;80.80
41924;DHT22;27613;48.116;11.656;2022-10-22T12:42:55;19.40;82.20
41924;DHT22;27613;48.116;11.656;2022-10-22T12:45:22;18.90;83.70
41924;DHT22;27613;48.116;11.656;2022-10-22T12:47:50;18.70;85.70
41924;DHT22;27613;48.116;11.656;2022-10-22T12:50:18;18.60;86.60
41924;DHT22;27613;48.116;11.656;2022-10-22T12:52:45;18.50;86.90
41924;DHT22;27613;48.116;11.656;2022-10-22T12:55:18;18.40;86.80
41924;DHT22;27613;48.116;11.656;2022-10-22T12:57:47;18.30;87.80
41924;DHT22;27613;48.116;11.656;2022-10-22T13:00:20;18.10;89.00
41924;DHT22;27613;48.116;11.656;2022-10-22T13:02:46;17.90;89.00
41924;DHT22;27613;48.116;11.656;2022-10-22T13:05:26;17.90;90.10
41924;DHT22;27613;48.116;11.656;2022-10-22T13:08:08;17.90;89.90
41924;DHT22;27613;48.116;11.656;2022-10-22T13:10:39;18.10;90.20
41924;DHT22;27613;48.116;11.656;2022-10-22T13:13:06;18.00;90.00
41924;DHT22;27613;48.116;11.656;2022-10-22T13:18:19;18.70;87.10
41924;DHT22;27613;48.116;11.656;2022-10-22T13:20:54;18.60;88.10
41924;DHT22;27613;48.116;11.656;2022-10-22T13:23:23;18.40;88.00
41924;DHT22;27613;48.116;11.656;2022-10-22T13:26:16;18.10;88.50
41924;DHT22;27613;48.116;11.656;2022-10-22T13:28:49;18.00;88.20
41924;DHT22;27613;48.116;11.656;2022-10-22T13:31:18;18.10;88.80
41924;DHT22;27613;48.116;11.656;2022-10-22T13:33:49;18.00;88.40
41924;DHT22;27613;48.116;11.656;2022-10-22T13:36:16;18.20;88.20
41924;DHT22;27613;48.116;11.656;2022-10-22T13:38:43;20.30;84.60
41924;DHT22;27613;48.116;11.656;2022-10-22T13:41:25;21.10;80.60
41924;DHT22;27613;48.116;11.656;2022-10-22T13:43:52;20.00;81.50
41924;DHT22;27613;48.116;11.656;2022-10-22T13:46:18;19.80;82.20
41924;DHT22;27613;48.116;11.656;2022-10-22T13:48:45;20.90;80.50
41924;DHT22;27613;48.116;11.656;2022-10-22T13:51:35;20.70;80.10
41924;DHT22;27613;48.116;11.656;2022-10-22T13:54:02;20.80;78.70
41924;DHT22;27613;48.116;11.656;2022-10-22T13:56:28;21.90;76.30
41924;DHT22;27613;48.116;11.656;2022-10-22T13:58:54;22.40;72.80
41924;DHT22;27613;48.116;11.656;2022-10-22T14:01:27;22.80;72.90
41924;DHT22;27613;48.116;11.656;2022-10-22T14:03:59;24.30;70.80
41924;DHT22;27613;48.116;11.656;2022-10-22T14:06:29;24.10;67.80
41924;DHT22;27613;48.116;11.656;2022-10-22T14:09:06;23.10;69.30
41924;DHT22;27613;48.116;11.656;2022-10-22T14:11:35;22.00;73.00
41924;DHT22;27613;48.116;11.656;2022-10-22T14:14:01;20.80;76.30
41924;DHT22;27613;48.116;11.656;2022-10-22T14:16:33;20.30;78.40
41924;DHT22;27613;48.116;11.656;2022-10-22T14:19:00;20.50;79.00
41924;DHT22;27613;48.116;11.656;2022-10-22T14:21:30;20.20;79.10
41924;DHT22;27613;48.116;11.656;2022-10-22T14:23:57;20.30;77.60
41924;DHT22;27613;48.116;11.656;2022-10-22T14:26:24;19.90;78.70
41924;DHT22;27613;48.116;11.656;2022-10-22T14:28:52;20.30;79.10
41924;DHT22;27613;48.116;11.656;2022-10-22T14:31:18;19.80;78.30
41924;DHT22;27613;48.116;11.656;2022-10-22T14:33:43;19.50;79.80
41924;DHT22;27613;48.116;11.656;2022-10-22T14:36:13;19.70;80.20
41924;DHT22;27613;48.116;11.656;2022-10-22T14:38:39;20.00;79.40
41924;DHT22;27613;48.116;11.656;2022-10-22T14:41:19;20.20;77.80
41924;DHT22;27613;48.116;11.656;2022-10-22T14:43:45;21.80;74.80
41924;DHT22;27613;48.116;11.656;2022-10-22T14:46:12;22.30;71.70
41924;DHT22;27613;48.116;11.656;2022-10-22T14:48:39;22.60;71.40
41924;DHT22;27613;48.116;11.656;2022-10-22T14:51:04;22.80;70.10
41924;DHT22;27613;48.116;11.656;2022-10-22T14:53:30;22.10;71.60
41924;DHT22;27613;48.116;11.656;2022-10-22T14:55:56;22.40;71.80
41924;DHT22;27613;48.116;11.656;2022-10-22T14:58:26;22.70;70.50
41924;DHT22;27613;48.116;11.656;2022-10-22T15:00:52;22.90;70.90
41924;DHT22;27613;48.116;11.656;2022-10-22T15:03:17;23.40;69.60
41924;DHT22;27613;48.116;11.656;2022-10-22T15:05:43;23.30;69.00
41924;DHT22;27613;48.116;11.656;2022-10-22T15:08:13;23.20;69.60
41924;DHT22;27613;48.116;11.656;2022-10-22T15:10:39;22.90;69.40
41924;DHT22;27613;48.116;11.656;2022-10-22T15:13:04;22.90;69.90
41924;DHT22;27613;48.116;11.656;2022-10-22T15:15:30;22.90;69.30
41924;DHT22;27613;48.116;11.656;2022-10-22T15:17:55;23.10;69.60
41924;DHT22;27613;48.116;11.656;2022-10-22T15:20:21;22.60;69.60
41924;DHT22;27613;48.116;11.656;2022-10-22T15:22:46;22.50;70.50
41924;DHT22;27613;48.116;11.656;2022-10-22T15:25:13;21.90;72.50
41924;DHT22;27613;48.116;11.656;2022-10-22T15:27:39;21.40;72.50
41924;DHT22;27613;48.116;11.656;2022-10-22T15:30:05;20.80;74.80
41924;DHT22;27613;48.116;11.656;2022-10-22T15:32:32;20.60;74.70
41924;DHT22;27613;48.116;11.656;2022-10-22T15:34:58;20.10;76.60
41924;DHT22;27613;48.116;11.656;2022-10-22T15:37:24;19.90;78.10
41924;DHT22;27613;48.116;11.656;2022-10-22T15:39:50;19.80;78.70
41924;DHT22;27613;48.116;11.656;2022-10-22T15:42:16;19.40;79.40
41924;DHT22;27613;48.116;11.656;2022-10-22T15:44:43;19.20;80.60
41924;DHT22;27613;48.116;11.656;2022-10-22T15:47:09;19.00;81.90
41924;DHT22;27613;48.116;11.656;2022-10-22T15:49:37;18.80;83.60
41924;DHT22;27613;48.116;11.656;2022-10-22T15:52:04;18.50;85.30
41924;DHT22;27613;48.116;11.656;2022-10-22T15:54:30;18.10;87.20
41924;DHT22;27613;48.116;11.656;2022-10-22T15:56:57;17.90;86.70
41924;DHT22;27613;48.116;11.656;2022-10-22T15:59:23;17.60;87.30
41924;DHT22;27613;48.116;11.656;2022-10-22T16:01:50;17.30;88.60
41924;DHT22;27613;48.116;11.656;2022-10-22T16:04:15;17.20;90.20
41924;DHT22;27613;48.116;11.656;2022-10-22T16:06:44;17.10;91.00
41924;DHT22;27613;48.116;11.656;2022-10-22T16:09:12;16.80;91.40
41924;DHT22;27613;48.116;11.656;2022-10-22T16:11:38;16.70;92.10
41924;DHT22;27613;48.116;11.656;2022-10-22T16:14:05;16.50;92.60
41924;DHT22;27613;48.116;11.656;2022-10-22T16:16:32;16.40;93.40
41924;DHT22;27613;48.116;11.656;2022-10-22T16:18:58;16.20;93.60
41924;DHT22;27613;48.116;11.656;2022-10-22T16:21:24;16.00;94.60
41924;DHT22;27613;48.116;11.656;2022-10-22T16:23:50;15.90;95.30
41924;DHT22;27613;48.116;11.656;2022-10-22T16:26:17;15.70;96.10
41924;DHT22;27613;48.116;11.656;2022-10-22T16:28:43;15.60;97.00
41924;DHT22;27613;48.116;11.656;2022-10-22T16:31:11;15.50;97.20
41924;DHT22;27613;48.116;11.656;2022-10-22T16:33:38;15.40;97.70
41924;DHT22;27613;48.116;11.656;2022-10-22T16:36:05;15.30;98.70
41924;DHT22;27613;48.116;11.656;2022-10-22T16:38:31;15.10;99.00
41924;DHT22;27613;48.116;11.656;2022-10-22T16:41:10;14.80;99.90
41924;DHT22;27613;48.116;11.656;2022-10-22T16:43:36;14.70;99.90
41924;DHT22;27613;48.116;11.656;2022-10-22T16:46:03;14.70;99.90
41924;DHT22;27613;48.116;11.656;2022-10-22T16:48:30;14.40;99.90
41924;DHT22;27613;48.116;11.656;2022-10-22T16:50:57;14.40;99.90